MROC/SJO METAR and TAF weather

Enter ICAO airport designator
Station Type Date Time Source
MROC METAR 2021/09/23 17:00 UTC NOAA

MROC 231700Z 25010KT 9999 SCT030 26/22 A3000 NOSIG


Station Type Date Time Source
MROC Decoded METAR 2021/09/23 17:00 UTC NOAA

Juan Santamaria, Costa Rica (MROC) 10-00N 084-13W 939M
Sep 23, 2021 - 01:00 PM EDT / 2021.09.23 1700 UTC
Wind: from the WSW (250 degrees) at 12 MPH (10 KT):0
Visibility: greater than 7 mile(s):0
Sky conditions: partly cloudy
Temperature: 78 F (26 C)
Dew Point: 71 F (22 C)
Relative Humidity: 78%
Pressure (altimeter): 30 in. Hg (1015 hPa)
ob: MROC 231700Z 25010KT 9999 SCT030 26/22 A3000 NOSIG
cycle: 17

Station Type Date Time Source
MROC TAF 2021/09/23 18:30 UTC NOAA

TAF MROC 231700Z 2318/2418 25007KT 9999 SCT025 TX28/2317Z TN19/2411Z
TEMPO 2319/2322 TSRA SCT015CB BKN025
TEMPO 2323/2403 VRB02KT RA BCFG BKN015
TEMPO 2404/2413 07004KT

Example: see airport list